createdAt,value
2023-03-30T00:01:35.440Z,100176.38
2023-03-30T00:04:07.008Z,100184.78
2023-03-30T00:06:39.379Z,100175.59
2023-03-30T00:09:12.862Z,100167.19
2023-03-30T00:11:43.831Z,100174.41
2023-03-30T00:14:18.048Z,100171.25
2023-03-30T00:16:48.349Z,100166.97
2023-03-30T00:19:19.121Z,100163.69
2023-03-30T00:21:50.052Z,100151.91
2023-03-30T00:24:23.191Z,100143.59
2023-03-30T00:26:53.892Z,100134.44
2023-03-30T00:29:24.395Z,100140.34
2023-03-30T00:31:55.577Z,100128.00
2023-03-30T00:34:27.809Z,100134.66
2023-03-30T00:36:58.507Z,100127.47
2023-03-30T00:39:31.703Z,100123.63
2023-03-30T00:42:02.192Z,100100.69
2023-03-30T00:45:02.887Z,100100.97
2023-03-30T00:47:33.749Z,100099.19
2023-03-30T00:50:04.872Z,100099.06
2023-03-30T00:52:37.433Z,100094.81
2023-03-30T00:55:12.853Z,100086.25
2023-03-30T00:57:47.025Z,100057.09
2023-03-30T01:00:18.844Z,100057.78
2023-03-30T01:02:56.162Z,100087.59
2023-03-30T01:05:29.687Z,100085.84
2023-03-30T01:08:02.192Z,100089.38
2023-03-30T01:10:35.764Z,100064.63
2023-03-30T01:13:07.661Z,100072.72
2023-03-30T01:15:43.132Z,100089.91
2023-03-30T01:18:27.812Z,100080.53
2023-03-30T01:21:27.870Z,100080.97
2023-03-30T01:24:42.950Z,100068.00
2023-03-30T01:27:31.618Z,100055.44
2023-03-30T01:30:25.181Z,100057.75
2023-03-30T01:33:11.924Z,100036.13
2023-03-30T01:36:17.985Z,100021.91
2023-03-30T01:39:23.131Z,100033.09
2023-03-30T01:42:01.748Z,100010.78
2023-03-30T01:44:40.991Z,100028.31
2023-03-30T01:47:20.362Z,100029.44
2023-03-30T01:50:01.181Z,100006.53
2023-03-30T01:52:41.476Z,100004.53
2023-03-30T01:55:19.727Z,99991.56
2023-03-30T01:57:56.287Z,99989.34
2023-03-30T02:00:28.829Z,99978.75
2023-03-30T02:03:05.758Z,99998.25
2023-03-30T02:05:38.208Z,99981.75
2023-03-30T02:08:13.820Z,99989.41
2023-03-30T02:10:48.909Z,99984.16
2023-03-30T02:13:20.919Z,99973.31
2023-03-30T02:15:56.264Z,99980.25
2023-03-30T02:18:27.279Z,99977.50
2023-03-30T02:20:59.562Z,99982.81
2023-03-30T02:23:38.423Z,99965.19
2023-03-30T02:26:11.981Z,99963.94
2023-03-30T02:28:42.958Z,99960.53
2023-03-30T02:31:17.185Z,99954.88
2023-03-30T02:34:03.930Z,99956.66
2023-03-30T02:36:49.892Z,99947.22
2023-03-30T02:39:31.010Z,99919.06
2023-03-30T02:42:27.307Z,99878.31
2023-03-30T02:45:12.251Z,99909.13
2023-03-30T02:47:52.236Z,99913.78
2023-03-30T02:50:33.850Z,99914.16
2023-03-30T02:53:18.007Z,99916.94
2023-03-30T02:56:00.820Z,99908.38
2023-03-30T02:58:48.377Z,99926.72
2023-03-30T03:01:28.589Z,99922.72
2023-03-30T03:04:11.150Z,99927.25
2023-03-30T03:06:53.104Z,99907.59
2023-03-30T03:09:25.156Z,99909.13
2023-03-30T03:11:56.158Z,99926.72
2023-03-30T03:14:32.102Z,99909.84
2023-03-30T03:17:02.919Z,99912.88
2023-03-30T03:19:38.366Z,99905.59
2023-03-30T03:22:09.234Z,99913.59
2023-03-30T03:24:41.597Z,99923.19
2023-03-30T03:27:34.180Z,99905.31
2023-03-30T03:30:33.765Z,99871.34
2023-03-30T03:33:11.524Z,99874.31
2023-03-30T03:35:46.038Z,99880.47
2023-03-30T03:38:17.353Z,99882.59
2023-03-30T03:40:52.840Z,99888.63
2023-03-30T03:43:23.627Z,99884.88
2023-03-30T03:45:56.907Z,99883.56
2023-03-30T03:48:28.253Z,99877.75
2023-03-30T03:51:01.054Z,99868.06
2023-03-30T03:53:36.479Z,99867.31
2023-03-30T03:56:11.949Z,99865.66
2023-03-30T03:58:42.643Z,99864.66
2023-03-30T04:01:16.329Z,99863.66
2023-03-30T04:03:46.965Z,99871.34
2023-03-30T04:06:17.473Z,99873.47
2023-03-30T04:08:48.125Z,99866.25
2023-03-30T04:11:41.773Z,99859.81
2023-03-30T04:14:31.040Z,99859.28
2023-03-30T04:17:24.025Z,99843.19
2023-03-30T04:20:06.096Z,99836.88
2023-03-30T04:22:53.533Z,99837.72
2023-03-30T04:25:58.410Z,99830.94
2023-03-30T04:28:48.012Z,99812.31
2023-03-30T04:31:35.091Z,99812.31
2023-03-30T04:34:31.363Z,99806.78
2023-03-30T04:37:30.420Z,99812.72
2023-03-30T04:40:20.150Z,99803.16
2023-03-30T04:43:14.669Z,99770.25
2023-03-30T04:46:05.404Z,99817.72
2023-03-30T04:49:01.952Z,99818.81
2023-03-30T04:51:44.222Z,99812.38
2023-03-30T04:54:36.065Z,99811.59
2023-03-30T04:57:41.913Z,99814.38
2023-03-30T05:00:31.938Z,99822.53
2023-03-30T05:03:24.935Z,99819.59
2023-03-30T05:06:22.248Z,99815.56
2023-03-30T05:09:14.604Z,99821.59
2023-03-30T05:12:08.672Z,99826.84
2023-03-30T05:14:51.986Z,99816.25
2023-03-30T05:17:51.903Z,99812.97
2023-03-30T05:20:41.351Z,99814.72
2023-03-30T05:23:35.268Z,99820.53
2023-03-30T05:26:44.039Z,99818.44
2023-03-30T05:29:33.115Z,99811.50
2023-03-30T05:32:39.331Z,99804.69
2023-03-30T05:35:34.573Z,99800.53
2023-03-30T05:38:19.315Z,99798.59
2023-03-30T05:41:14.311Z,99791.50
2023-03-30T05:44:21.879Z,99795.06
2023-03-30T05:47:12.086Z,99800.97
2023-03-30T05:50:12.011Z,99803.44
2023-03-30T05:52:56.793Z,99794.22
2023-03-30T05:55:42.484Z,99807.28
2023-03-30T05:58:39.786Z,99805.44
2023-03-30T06:01:26.926Z,99806.53
2023-03-30T06:04:00.689Z,99786.34
2023-03-30T06:06:32.549Z,99798.31
2023-03-30T06:09:04.487Z,99801.25
2023-03-30T06:11:37.283Z,99795.19
2023-03-30T06:14:23.732Z,99797.50
2023-03-30T06:17:17.495Z,99797.22
2023-03-30T06:19:49.281Z,99784.06
2023-03-30T06:22:22.081Z,99787.78
2023-03-30T06:25:08.064Z,99782.53
2023-03-30T06:27:43.322Z,99781.88
2023-03-30T06:30:18.314Z,99773.03
2023-03-30T06:32:56.765Z,99775.56
2023-03-30T06:35:29.619Z,99755.50
2023-03-30T06:38:01.541Z,99744.78
2023-03-30T06:40:33.423Z,99750.88
2023-03-30T06:43:04.092Z,99742.50
2023-03-30T06:45:44.102Z,99743.94
2023-03-30T06:48:17.628Z,99759.59
2023-03-30T06:50:49.033Z,99759.97
2023-03-30T06:53:26.711Z,99758.88
2023-03-30T06:55:59.851Z,99740.16
2023-03-30T06:58:34.588Z,99755.09
2023-03-30T07:01:13.470Z,99755.56
2023-03-30T07:04:10.936Z,99771.44
2023-03-30T07:07:01.696Z,99773.41
2023-03-30T07:09:32.837Z,99775.13
2023-03-30T07:12:03.924Z,99801.63
2023-03-30T07:14:35.216Z,99787.13
2023-03-30T07:17:08.044Z,99791.81
2023-03-30T07:19:41.492Z,99769.97
2023-03-30T07:22:12.882Z,99785.69
2023-03-30T07:24:45.103Z,99781.13
2023-03-30T07:27:16.449Z,99776.59
2023-03-30T07:29:47.685Z,99768.66
2023-03-30T07:32:20.037Z,99778.31
2023-03-30T07:34:53.685Z,99787.94
2023-03-30T07:37:24.983Z,99787.66
2023-03-30T07:39:57.110Z,99785.59
2023-03-30T07:42:27.988Z,99759.13
2023-03-30T07:44:58.863Z,99787.53
2023-03-30T07:47:29.718Z,99783.19
2023-03-30T07:50:03.008Z,99780.44
2023-03-30T07:52:34.409Z,99785.19
2023-03-30T07:55:07.903Z,99779.63
2023-03-30T07:57:47.373Z,99766.19
2023-03-30T08:00:19.053Z,99769.19
2023-03-30T08:03:08.513Z,99784.41
2023-03-30T08:05:42.455Z,99781.53
2023-03-30T08:08:23.001Z,99781.03
2023-03-30T08:10:53.866Z,99783.34
2023-03-30T08:13:24.875Z,99787.91
2023-03-30T08:15:56.109Z,99783.78
2023-03-30T08:18:28.991Z,99780.56
2023-03-30T08:21:02.588Z,99757.53
2023-03-30T08:23:33.771Z,99780.34
2023-03-30T08:26:04.301Z,99779.25
2023-03-30T08:28:35.176Z,99778.63
2023-03-30T08:31:08.810Z,99785.19
2023-03-30T08:33:39.757Z,99782.66
2023-03-30T08:36:13.165Z,99769.75
2023-03-30T08:38:45.422Z,99779.03
2023-03-30T08:41:49.800Z,99774.75
2023-03-30T08:44:31.942Z,99774.75
2023-03-30T08:47:05.856Z,99779.25
2023-03-30T08:49:41.928Z,99768.91
2023-03-30T08:52:20.979Z,99773.13
2023-03-30T08:54:52.463Z,99775.66
2023-03-30T08:57:40.028Z,99774.31
2023-03-30T09:00:23.164Z,99770.28
2023-03-30T09:02:57.557Z,99761.91
2023-03-30T09:05:35.230Z,99761.38
2023-03-30T09:08:17.144Z,99757.53
2023-03-30T09:10:52.690Z,99752.38
2023-03-30T09:13:27.369Z,99747.19
2023-03-30T09:16:04.014Z,99748.56
2023-03-30T09:18:36.130Z,99752.97
2023-03-30T09:21:09.099Z,99767.94
2023-03-30T09:23:43.325Z,99761.63
2023-03-30T09:26:20.685Z,99754.78
2023-03-30T09:28:57.633Z,99751.84
2023-03-30T09:31:34.238Z,99756.59
2023-03-30T09:34:09.510Z,99755.03
2023-03-30T09:36:47.418Z,99742.06
2023-03-30T09:39:23.694Z,99768.06
2023-03-30T09:42:11.689Z,99780.66
2023-03-30T09:44:49.045Z,99784.31
2023-03-30T09:47:27.084Z,99791.94
2023-03-30T09:50:02.568Z,99788.47
2023-03-30T09:52:37.280Z,99809.75
2023-03-30T09:55:31.370Z,99818.16
2023-03-30T09:58:15.185Z,99803.72
2023-03-30T10:00:45.984Z,99797.69
2023-03-30T10:03:24.397Z,99802.75
2023-03-30T10:06:06.094Z,99792.34
2023-03-30T10:08:46.247Z,99794.69
2023-03-30T10:11:24.037Z,99801.28
2023-03-30T10:13:55.250Z,99796.03
2023-03-30T10:16:29.785Z,99787.31
2023-03-30T10:19:03.964Z,99779.34
2023-03-30T10:21:35.093Z,99793.25
2023-03-30T10:24:08.457Z,99791.03
2023-03-30T10:26:44.407Z,99783.38
2023-03-30T10:29:16.750Z,99789.63
2023-03-30T10:31:50.148Z,99783.66
2023-03-30T10:34:23.875Z,99785.19
2023-03-30T10:36:56.571Z,99791.94
2023-03-30T10:39:32.456Z,99800.91
2023-03-30T10:42:09.545Z,99804.94
2023-03-30T10:44:44.524Z,99841.72
2023-03-30T10:47:29.812Z,99846.34
2023-03-30T10:50:10.519Z,99855.09
2023-03-30T10:52:59.001Z,99850.50
2023-03-30T10:55:37.103Z,99845.63
2023-03-30T10:58:22.816Z,99834.53
2023-03-30T11:01:14.706Z,99834.44
2023-03-30T11:03:50.428Z,99839.94
2023-03-30T11:06:25.085Z,99826.50
2023-03-30T11:08:58.005Z,99832.69
2023-03-30T11:11:36.779Z,99840.78
2023-03-30T11:14:16.686Z,99832.06
2023-03-30T11:16:53.804Z,99839.78
2023-03-30T11:19:28.092Z,99823.28
2023-03-30T11:22:06.644Z,99824.44
2023-03-30T11:24:38.343Z,99816.88
2023-03-30T11:27:17.419Z,99806.25
2023-03-30T11:29:56.850Z,99809.38
2023-03-30T11:32:36.055Z,99808.72
2023-03-30T11:35:15.319Z,99800.22
2023-03-30T11:37:52.868Z,99781.81
2023-03-30T11:40:27.507Z,99797.72
2023-03-30T11:42:58.682Z,99793.69
2023-03-30T11:45:45.905Z,99780.13
2023-03-30T11:48:41.760Z,99777.56
2023-03-30T11:51:23.793Z,99784.28
2023-03-30T11:54:03.063Z,99784.22
2023-03-30T11:56:40.382Z,99777.69
2023-03-30T11:59:20.504Z,99792.22
2023-03-30T12:02:08.828Z,99786.94
2023-03-30T12:04:45.592Z,99797.66
2023-03-30T12:07:29.902Z,99781.53
2023-03-30T12:10:06.721Z,99802.38
2023-03-30T12:12:42.150Z,99791.00
2023-03-30T12:15:19.375Z,99797.31
2023-03-30T12:17:56.834Z,99798.34
2023-03-30T12:20:42.545Z,99799.59
2023-03-30T12:23:24.015Z,99806.44
2023-03-30T12:26:10.677Z,99796.84
2023-03-30T12:31:22.668Z,99803.41
2023-03-30T12:34:08.515Z,99780.94
2023-03-30T12:36:41.000Z,99799.44
2023-03-30T12:39:22.058Z,99799.72
2023-03-30T12:41:55.346Z,99790.88
2023-03-30T12:44:39.244Z,99794.69
2023-03-30T12:47:34.750Z,99798.06
2023-03-30T12:50:26.457Z,99804.72
2023-03-30T12:53:09.362Z,99806.44
2023-03-30T12:55:48.930Z,99801.44
2023-03-30T12:58:52.006Z,99814.28
2023-03-30T13:01:47.296Z,99830.50
2023-03-30T13:04:23.720Z,99803.28
2023-03-30T13:07:01.178Z,99809.25
2023-03-30T13:09:34.836Z,99842.25
2023-03-30T13:12:32.926Z,99843.53
2023-03-30T13:15:07.130Z,99861.81
2023-03-30T13:17:52.765Z,99851.91
2023-03-30T13:20:29.679Z,99848.09
2023-03-30T13:23:27.786Z,99852.06
2023-03-30T13:26:08.497Z,99844.84
2023-03-30T13:29:03.065Z,99845.16
2023-03-30T13:31:57.323Z,99856.53
2023-03-30T13:35:03.591Z,99838.13
2023-03-30T13:38:07.770Z,99834.63
2023-03-30T13:43:39.115Z,99830.88
2023-03-30T13:46:17.891Z,99815.16
2023-03-30T13:49:00.211Z,99823.50
2023-03-30T13:51:32.772Z,99825.28
2023-03-30T13:54:06.642Z,99814.97
2023-03-30T13:56:42.707Z,99831.28
2023-03-30T13:59:17.158Z,99821.72
2023-03-30T14:01:52.939Z,99824.06
2023-03-30T14:04:24.173Z,99826.78
2023-03-30T14:06:54.813Z,99832.84
2023-03-30T14:09:27.792Z,99830.69
2023-03-30T14:12:03.074Z,99828.72
2023-03-30T14:14:39.382Z,99836.19
2023-03-30T14:17:18.441Z,99828.38
2023-03-30T14:20:07.863Z,99832.47
2023-03-30T14:22:44.454Z,99826.75
2023-03-30T14:25:28.564Z,99827.97
2023-03-30T14:28:06.078Z,99840.44
2023-03-30T14:30:36.991Z,99826.84
2023-03-30T14:33:09.838Z,99832.63
2023-03-30T14:35:45.170Z,99820.72
2023-03-30T14:38:19.358Z,99822.53
2023-03-30T14:40:50.866Z,99812.59
2023-03-30T14:43:27.464Z,99827.56
2023-03-30T14:46:02.109Z,99835.09
2023-03-30T14:48:35.115Z,99821.72
2023-03-30T14:51:07.940Z,99828.69
2023-03-30T14:53:38.829Z,99828.03
2023-03-30T14:56:10.518Z,99837.63
2023-03-30T14:58:44.699Z,99836.66
2023-03-30T15:01:20.690Z,99840.34
2023-03-30T15:03:52.162Z,99832.50
2023-03-30T15:06:26.915Z,99833.81
2023-03-30T15:09:04.330Z,99843.84
2023-03-30T15:11:38.759Z,99817.94
2023-03-30T15:14:18.964Z,99828.59
2023-03-30T15:16:53.872Z,99821.50
2023-03-30T15:19:32.911Z,99842.38
2023-03-30T15:22:06.386Z,99844.84
2023-03-30T15:24:39.676Z,99837.22
2023-03-30T15:27:12.485Z,99861.66
2023-03-30T15:29:47.357Z,99860.28
2023-03-30T15:32:20.050Z,99852.53
2023-03-30T15:35:08.623Z,99865.78
2023-03-30T15:37:40.160Z,99872.16
2023-03-30T15:40:34.266Z,99874.47
2023-03-30T15:43:23.248Z,99887.06
2023-03-30T15:45:59.382Z,99894.56
2023-03-30T15:48:34.604Z,99912.84
2023-03-30T15:51:10.868Z,99905.91
2023-03-30T15:53:45.156Z,99887.13
2023-03-30T15:56:23.353Z,99867.69
2023-03-30T15:58:54.556Z,99867.78
2023-03-30T16:01:41.784Z,99877.91
2023-03-30T16:04:17.205Z,99884.56
2023-03-30T16:06:48.211Z,99893.50
2023-03-30T16:09:18.940Z,99873.88
2023-03-30T16:11:50.076Z,99874.91
2023-03-30T16:14:23.056Z,99879.84
2023-03-30T16:16:56.213Z,99879.44
2023-03-30T16:19:26.657Z,99873.72
2023-03-30T16:21:57.100Z,99873.44
2023-03-30T16:24:27.848Z,99868.03
2023-03-30T16:26:58.429Z,99876.59
2023-03-30T16:29:28.935Z,99860.44
2023-03-30T16:32:02.687Z,99873.63
2023-03-30T16:34:33.304Z,99879.22
2023-03-30T16:37:04.340Z,99883.38
2023-03-30T16:39:35.028Z,99875.88
2023-03-30T16:42:06.008Z,99876.28
2023-03-30T16:44:36.614Z,99873.88
2023-03-30T16:47:10.193Z,99893.00
2023-03-30T16:49:40.876Z,99887.41
2023-03-30T16:52:11.658Z,99894.69
2023-03-30T16:54:42.285Z,99899.13
2023-03-30T16:57:13.556Z,99899.78
2023-03-30T16:59:44.292Z,99896.16
2023-03-30T17:02:19.369Z,99906.03
2023-03-30T17:04:50.121Z,99921.00
2023-03-30T17:07:20.758Z,99918.03
2023-03-30T17:09:51.338Z,99924.97
2023-03-30T17:12:21.888Z,99915.06
2023-03-30T17:14:54.711Z,99918.94
2023-03-30T17:17:27.964Z,99916.31
2023-03-30T17:19:59.451Z,99921.25
2023-03-30T17:22:30.678Z,99916.19
2023-03-30T17:25:01.170Z,99928.16
2023-03-30T17:27:31.729Z,99928.16
2023-03-30T17:30:02.268Z,99927.16
2023-03-30T17:32:35.437Z,99936.53
2023-03-30T17:35:06.383Z,99920.38
2023-03-30T17:37:36.888Z,99937.94
2023-03-30T17:40:17.695Z,99929.25
2023-03-30T17:42:48.370Z,99933.34
2023-03-30T17:45:21.260Z,99930.63
2023-03-30T17:47:54.606Z,99934.13
2023-03-30T17:50:28.510Z,99926.13
2023-03-30T17:53:00.146Z,99927.75
2023-03-30T17:55:32.671Z,99933.03
2023-03-30T17:58:06.278Z,99926.53
2023-03-30T18:00:37.265Z,99870.84
2023-03-30T18:03:10.639Z,99924.91
2023-03-30T18:05:41.594Z,99928.22
2023-03-30T18:08:17.570Z,99925.69
2023-03-30T18:10:51.771Z,99929.06
2023-03-30T18:13:23.720Z,99922.38
2023-03-30T18:15:55.986Z,99930.22
2023-03-30T18:18:31.732Z,99920.84
2023-03-30T18:21:05.582Z,99921.75
2023-03-30T18:23:37.492Z,99940.94
2023-03-30T18:26:12.140Z,99943.59
2023-03-30T18:28:44.553Z,99949.41
2023-03-30T18:31:15.739Z,99918.75
2023-03-30T18:33:51.638Z,99945.91
2023-03-30T18:36:24.593Z,99946.66
2023-03-30T18:38:55.293Z,99948.41
2023-03-30T18:41:26.079Z,99935.88
2023-03-30T18:43:56.672Z,99948.06
2023-03-30T18:46:27.341Z,99954.75
2023-03-30T18:49:00.566Z,99950.13
2023-03-30T18:51:32.540Z,99953.56
2023-03-30T18:54:03.277Z,99960.44
2023-03-30T18:56:34.054Z,99960.53
2023-03-30T18:59:06.533Z,99955.91
2023-03-30T19:01:38.300Z,99953.59
2023-03-30T19:04:12.128Z,99946.69
2023-03-30T19:06:44.534Z,99949.75
2023-03-30T19:09:15.076Z,99954.69
2023-03-30T19:11:45.586Z,99946.97
2023-03-30T19:14:16.204Z,99950.16
2023-03-30T19:16:46.845Z,99943.66
2023-03-30T19:19:19.991Z,99942.56
2023-03-30T19:21:55.126Z,99951.59
2023-03-30T19:24:25.627Z,99958.84
2023-03-30T19:26:56.357Z,99962.38
2023-03-30T19:29:29.816Z,99957.78
2023-03-30T19:32:00.382Z,99960.53
2023-03-30T19:34:33.464Z,99959.75
2023-03-30T19:37:03.996Z,99950.97
2023-03-30T19:39:35.910Z,99953.84
2023-03-30T19:42:08.788Z,99947.91
2023-03-30T19:44:40.058Z,99951.75
2023-03-30T19:47:10.726Z,99948.53
2023-03-30T19:49:43.987Z,99950.06
2023-03-30T19:52:14.600Z,99953.47
2023-03-30T19:54:45.454Z,99953.38
2023-03-30T19:57:16.872Z,99961.94
2023-03-30T19:59:48.390Z,99950.22
2023-03-30T20:02:19.398Z,99951.84
2023-03-30T20:04:52.585Z,99942.28
2023-03-30T20:07:24.622Z,99947.44
2023-03-30T20:09:55.427Z,99952.28
2023-03-30T20:12:26.430Z,99947.75
2023-03-30T20:14:59.004Z,99939.72
2023-03-30T20:17:30.127Z,99934.41
2023-03-30T20:20:07.306Z,99938.97
2023-03-30T20:22:39.040Z,99933.88
2023-03-30T20:25:12.411Z,99932.91
2023-03-30T20:27:43.115Z,99934.22
2023-03-30T20:30:16.950Z,99932.22
2023-03-30T20:33:03.946Z,99918.50
2023-03-30T20:35:41.996Z,99926.97
2023-03-30T20:38:12.762Z,99929.97
2023-03-30T20:40:43.357Z,99924.84
2023-03-30T20:43:13.981Z,99928.06
2023-03-30T20:45:48.800Z,99927.78
2023-03-30T20:48:26.442Z,99910.88
2023-03-30T20:51:00.111Z,99934.41
2023-03-30T20:53:31.693Z,99915.97
2023-03-30T20:56:02.820Z,99923.63
2023-03-30T20:58:33.857Z,99916.97
2023-03-30T21:01:14.524Z,99916.06
2023-03-30T21:03:50.174Z,99903.75
2023-03-30T21:06:24.264Z,99913.63
2023-03-30T21:08:55.012Z,99906.34
2023-03-30T21:11:27.386Z,99911.47
2023-03-30T21:13:58.590Z,99913.16
2023-03-30T21:16:29.280Z,99903.59
2023-03-30T21:18:59.862Z,99895.97
2023-03-30T21:21:34.072Z,99910.25
2023-03-30T21:24:04.617Z,99912.28
2023-03-30T21:26:35.793Z,99879.59
2023-03-30T21:29:06.840Z,99906.13
2023-03-30T21:31:38.031Z,99902.47
2023-03-30T21:34:10.854Z,99891.78
2023-03-30T21:36:44.499Z,99903.09
2023-03-30T21:39:15.137Z,99905.63
2023-03-30T21:41:45.664Z,99895.94
2023-03-30T21:44:16.535Z,99900.88
2023-03-30T21:46:47.098Z,99902.59
2023-03-30T21:49:17.763Z,99903.13
2023-03-30T21:51:50.860Z,99902.50
2023-03-30T21:54:22.162Z,99903.13
2023-03-30T21:56:52.740Z,99904.00
2023-03-30T21:59:23.493Z,99897.69
2023-03-30T22:01:54.104Z,99899.06
2023-03-30T22:04:24.755Z,99895.28
2023-03-30T22:06:58.258Z,99895.22
2023-03-30T22:09:28.970Z,99890.41
2023-03-30T22:11:59.627Z,99877.88
2023-03-30T22:14:30.215Z,99884.25
2023-03-30T22:17:01.182Z,99886.25
2023-03-30T22:19:32.074Z,99875.06
2023-03-30T22:22:05.730Z,99878.16
2023-03-30T22:24:36.506Z,99882.13
2023-03-30T22:27:09.041Z,99876.66
2023-03-30T22:29:39.634Z,99886.47
2023-03-30T22:32:10.583Z,99876.81
2023-03-30T22:34:41.297Z,99877.88
2023-03-30T22:37:14.542Z,99881.56
2023-03-30T22:39:45.120Z,99876.06
2023-03-30T22:42:15.822Z,99874.16
2023-03-30T22:44:47.083Z,99878.94
2023-03-30T22:47:17.688Z,99869.50
2023-03-30T22:49:50.554Z,99877.75
2023-03-30T22:52:24.221Z,99873.72
2023-03-30T22:54:55.032Z,99858.34
2023-03-30T22:57:25.859Z,99864.31
2023-03-30T22:59:56.820Z,99863.69
2023-03-30T23:02:27.437Z,99862.38
2023-03-30T23:04:58.104Z,99864.78
2023-03-30T23:07:33.646Z,99859.00
2023-03-30T23:10:04.973Z,99861.50
2023-03-30T23:12:36.219Z,99855.56
2023-03-30T23:15:07.512Z,99855.56
2023-03-30T23:17:38.151Z,99849.13
2023-03-30T23:20:11.771Z,99857.91
2023-03-30T23:22:45.261Z,99858.78
2023-03-30T23:25:15.908Z,99847.94
2023-03-30T23:27:46.578Z,99849.78
2023-03-30T23:30:18.021Z,99847.53
2023-03-30T23:32:48.856Z,99845.09
2023-03-30T23:35:19.826Z,99840.06
2023-03-30T23:37:55.228Z,99844.22
2023-03-30T23:40:25.819Z,99838.97
2023-03-30T23:42:57.071Z,99835.19
2023-03-30T23:45:27.894Z,99833.56
2023-03-30T23:47:59.602Z,99834.44
2023-03-30T23:50:30.282Z,99831.94
2023-03-30T23:53:03.485Z,99825.34
2023-03-30T23:55:33.953Z,99821.16
2023-03-30T23:58:04.716Z,99819.53
